Карточка аэропорта UMMG

Внимание!
Информация на этой странице в стадии наполнения.
Если вы не увидели какой-то информации, или заметили неточность - пожалуйста сообщите нам!
Спасибо!
Команда RU-STAFF
Название аэропортаGrodno
Название аэропорта (англ.)Grodno
Превышение443 ft. (135 m.)
Координаты53°36.114', 24°3.2339999999999'
Высота перехода6000 ft
Эшелон переходаFL80; QNH<977hPa - FL90
Коды ответчика0036
Зона ОрВДМинск РПИ (UMMV)
Данные METARUMMG 081300Z 21003G06MPS 9999 BKN020 M00/M04 Q1011 NOSIG
Проноз погоды (TAF)
NOTAMshow/hide NOTAM
AWOS   TABLE

Информация о ВПП

ВПП Длина ВПП (м.) Покрытие Курс ВПП Частота ILS
172560Цементобетон170109.5
352560Цементобетон350 

Диспетчерские позиции




Спутниковое изображение